sensor_id;sensor_type;location;lat;lon;timestamp;P1;durP1;ratioP1;P2;durP2;ratioP2
5821;SDS011;2937;48.562;8.022;2022-12-07T00:02:41;53.77;;;26.60;;
5821;SDS011;2937;48.562;8.022;2022-12-07T00:07:33;57.63;;;27.03;;
5821;SDS011;2937;48.562;8.022;2022-12-07T00:12:28;54.90;;;28.20;;
5821;SDS011;2937;48.562;8.022;2022-12-07T00:17:20;56.57;;;27.10;;
5821;SDS011;2937;48.562;8.022;2022-12-07T00:22:13;57.27;;;26.70;;
5821;SDS011;2937;48.562;8.022;2022-12-07T00:27:06;58.50;;;27.10;;
5821;SDS011;2937;48.562;8.022;2022-12-07T00:32:00;58.80;;;27.50;;
5821;SDS011;2937;48.562;8.022;2022-12-07T00:36:53;65.47;;;27.33;;
5821;SDS011;2937;48.562;8.022;2022-12-07T00:41:45;63.93;;;29.20;;
5821;SDS011;2937;48.562;8.022;2022-12-07T00:46:38;61.53;;;27.83;;
5821;SDS011;2937;48.562;8.022;2022-12-07T00:51:32;63.30;;;29.87;;
5821;SDS011;2937;48.562;8.022;2022-12-07T00:56:25;53.87;;;27.37;;
5821;SDS011;2937;48.562;8.022;2022-12-07T01:01:18;58.73;;;27.83;;
5821;SDS011;2937;48.562;8.022;2022-12-07T01:06:13;59.43;;;28.50;;
5821;SDS011;2937;48.562;8.022;2022-12-07T01:11:08;57.70;;;26.33;;
5821;SDS011;2937;48.562;8.022;2022-12-07T01:16:02;58.10;;;27.70;;
5821;SDS011;2937;48.562;8.022;2022-12-07T01:20:59;60.20;;;28.40;;
5821;SDS011;2937;48.562;8.022;2022-12-07T01:25:53;59.80;;;25.90;;
5821;SDS011;2937;48.562;8.022;2022-12-07T01:30:55;63.97;;;27.00;;
5821;SDS011;2937;48.562;8.022;2022-12-07T01:35:47;58.80;;;27.60;;
5821;SDS011;2937;48.562;8.022;2022-12-07T01:40:40;65.20;;;28.93;;
5821;SDS011;2937;48.562;8.022;2022-12-07T01:45:36;58.83;;;26.40;;
5821;SDS011;2937;48.562;8.022;2022-12-07T01:50:30;57.57;;;27.03;;
5821;SDS011;2937;48.562;8.022;2022-12-07T01:55:24;61.63;;;27.20;;
5821;SDS011;2937;48.562;8.022;2022-12-07T02:00:17;67.17;;;28.00;;
5821;SDS011;2937;48.562;8.022;2022-12-07T02:05:10;64.07;;;27.70;;
5821;SDS011;2937;48.562;8.022;2022-12-07T02:10:13;66.23;;;28.77;;
5821;SDS011;2937;48.562;8.022;2022-12-07T02:15:06;65.53;;;27.60;;
5821;SDS011;2937;48.562;8.022;2022-12-07T02:25:12;65.87;;;28.47;;
5821;SDS011;2937;48.562;8.022;2022-12-07T02:30:09;62.00;;;27.60;;
5821;SDS011;2937;48.562;8.022;2022-12-07T02:35:03;59.47;;;27.60;;
5821;SDS011;2937;48.562;8.022;2022-12-07T02:39:58;59.13;;;25.57;;
5821;SDS011;2937;48.562;8.022;2022-12-07T02:44:52;62.20;;;26.17;;
5821;SDS011;2937;48.562;8.022;2022-12-07T02:49:46;61.00;;;26.90;;
5821;SDS011;2937;48.562;8.022;2022-12-07T02:54:39;55.10;;;25.93;;
5821;SDS011;2937;48.562;8.022;2022-12-07T02:59:34;66.63;;;28.00;;
5821;SDS011;2937;48.562;8.022;2022-12-07T03:04:33;61.50;;;27.47;;
5821;SDS011;2937;48.562;8.022;2022-12-07T03:09:35;61.03;;;28.27;;
5821;SDS011;2937;48.562;8.022;2022-12-07T03:14:30;65.57;;;27.27;;
5821;SDS011;2937;48.562;8.022;2022-12-07T03:19:24;55.53;;;25.70;;
5821;SDS011;2937;48.562;8.022;2022-12-07T03:24:18;62.47;;;26.83;;
5821;SDS011;2937;48.562;8.022;2022-12-07T03:29:15;62.73;;;25.80;;
5821;SDS011;2937;48.562;8.022;2022-12-07T03:34:10;65.13;;;26.33;;
5821;SDS011;2937;48.562;8.022;2022-12-07T03:39:06;59.77;;;26.23;;
5821;SDS011;2937;48.562;8.022;2022-12-07T03:44:00;77.37;;;27.60;;
5821;SDS011;2937;48.562;8.022;2022-12-07T03:48:57;60.70;;;25.93;;
5821;SDS011;2937;48.562;8.022;2022-12-07T03:53:52;71.87;;;28.10;;
5821;SDS011;2937;48.562;8.022;2022-12-07T03:58:47;80.00;;;28.60;;
5821;SDS011;2937;48.562;8.022;2022-12-07T04:03:40;88.67;;;30.23;;
5821;SDS011;2937;48.562;8.022;2022-12-07T04:08:34;76.43;;;29.40;;
5821;SDS011;2937;48.562;8.022;2022-12-07T04:13:27;84.67;;;30.33;;
5821;SDS011;2937;48.562;8.022;2022-12-07T04:18:20;73.67;;;29.50;;
5821;SDS011;2937;48.562;8.022;2022-12-07T04:23:12;75.27;;;28.37;;
5821;SDS011;2937;48.562;8.022;2022-12-07T04:28:06;68.00;;;30.27;;
5821;SDS011;2937;48.562;8.022;2022-12-07T04:32:59;66.80;;;26.27;;
5821;SDS011;2937;48.562;8.022;2022-12-07T04:37:51;68.00;;;28.17;;
5821;SDS011;2937;48.562;8.022;2022-12-07T04:42:44;72.43;;;29.30;;
5821;SDS011;2937;48.562;8.022;2022-12-07T04:47:38;70.23;;;30.70;;
5821;SDS011;2937;48.562;8.022;2022-12-07T04:52:30;76.53;;;31.20;;
5821;SDS011;2937;48.562;8.022;2022-12-07T04:57:23;67.33;;;29.23;;
5821;SDS011;2937;48.562;8.022;2022-12-07T05:02:16;127.27;;;32.40;;
5821;SDS011;2937;48.562;8.022;2022-12-07T05:07:11;200.10;;;31.87;;
5821;SDS011;2937;48.562;8.022;2022-12-07T05:12:03;80.10;;;28.47;;
5821;SDS011;2937;48.562;8.022;2022-12-07T05:16:56;86.53;;;29.40;;
5821;SDS011;2937;48.562;8.022;2022-12-07T05:21:48;89.43;;;31.13;;
5821;SDS011;2937;48.562;8.022;2022-12-07T05:26:43;78.53;;;27.50;;
5821;SDS011;2937;48.562;8.022;2022-12-07T05:31:36;70.90;;;28.57;;
5821;SDS011;2937;48.562;8.022;2022-12-07T05:36:28;93.13;;;28.43;;
5821;SDS011;2937;48.562;8.022;2022-12-07T05:41:23;85.03;;;29.07;;
5821;SDS011;2937;48.562;8.022;2022-12-07T05:46:34;87.57;;;28.90;;
5821;SDS011;2937;48.562;8.022;2022-12-07T05:51:27;91.73;;;31.20;;
5821;SDS011;2937;48.562;8.022;2022-12-07T05:56:20;78.70;;;28.53;;
5821;SDS011;2937;48.562;8.022;2022-12-07T06:01:12;79.10;;;29.03;;
5821;SDS011;2937;48.562;8.022;2022-12-07T06:06:06;72.67;;;26.60;;
5821;SDS011;2937;48.562;8.022;2022-12-07T06:10:59;84.33;;;27.90;;
5821;SDS011;2937;48.562;8.022;2022-12-07T06:16:06;72.73;;;27.73;;
5821;SDS011;2937;48.562;8.022;2022-12-07T06:20:58;64.70;;;26.40;;
5821;SDS011;2937;48.562;8.022;2022-12-07T06:25:52;75.77;;;26.77;;
5821;SDS011;2937;48.562;8.022;2022-12-07T06:30:45;72.30;;;26.83;;
5821;SDS011;2937;48.562;8.022;2022-12-07T06:35:37;75.40;;;25.63;;
5821;SDS011;2937;48.562;8.022;2022-12-07T06:40:30;73.23;;;27.30;;
5821;SDS011;2937;48.562;8.022;2022-12-07T06:45:24;65.93;;;23.90;;
5821;SDS011;2937;48.562;8.022;2022-12-07T06:50:16;58.80;;;25.13;;
5821;SDS011;2937;48.562;8.022;2022-12-07T06:55:09;53.10;;;24.17;;
5821;SDS011;2937;48.562;8.022;2022-12-07T07:00:02;41.50;;;20.50;;
5821;SDS011;2937;48.562;8.022;2022-12-07T07:04:56;48.67;;;21.77;;
5821;SDS011;2937;48.562;8.022;2022-12-07T07:09:49;48.03;;;24.40;;
5821;SDS011;2937;48.562;8.022;2022-12-07T07:14:42;62.33;;;29.30;;
5821;SDS011;2937;48.562;8.022;2022-12-07T07:19:34;59.37;;;32.77;;
5821;SDS011;2937;48.562;8.022;2022-12-07T07:24:29;65.70;;;33.90;;
5821;SDS011;2937;48.562;8.022;2022-12-07T07:29:22;61.00;;;33.87;;
5821;SDS011;2937;48.562;8.022;2022-12-07T07:34:15;55.60;;;28.30;;
5821;SDS011;2937;48.562;8.022;2022-12-07T07:39:07;43.63;;;24.60;;
5821;SDS011;2937;48.562;8.022;2022-12-07T07:44:05;37.67;;;19.90;;
5821;SDS011;2937;48.562;8.022;2022-12-07T07:48:57;38.13;;;20.90;;
5821;SDS011;2937;48.562;8.022;2022-12-07T07:53:50;36.50;;;18.40;;
5821;SDS011;2937;48.562;8.022;2022-12-07T07:58:43;36.17;;;18.00;;
5821;SDS011;2937;48.562;8.022;2022-12-07T08:03:37;41.00;;;21.13;;
5821;SDS011;2937;48.562;8.022;2022-12-07T08:08:29;39.20;;;22.07;;
5821;SDS011;2937;48.562;8.022;2022-12-07T08:13:22;36.20;;;20.07;;
5821;SDS011;2937;48.562;8.022;2022-12-07T08:18:21;36.07;;;20.47;;
5821;SDS011;2937;48.562;8.022;2022-12-07T08:23:15;45.77;;;24.93;;
5821;SDS011;2937;48.562;8.022;2022-12-07T08:28:08;57.63;;;32.73;;
5821;SDS011;2937;48.562;8.022;2022-12-07T08:33:00;62.50;;;35.53;;
5821;SDS011;2937;48.562;8.022;2022-12-07T08:37:53;59.83;;;33.57;;
5821;SDS011;2937;48.562;8.022;2022-12-07T08:42:49;47.23;;;28.70;;
5821;SDS011;2937;48.562;8.022;2022-12-07T08:47:43;48.53;;;27.90;;
5821;SDS011;2937;48.562;8.022;2022-12-07T08:52:37;49.50;;;26.57;;
5821;SDS011;2937;48.562;8.022;2022-12-07T08:57:31;41.80;;;23.40;;
5821;SDS011;2937;48.562;8.022;2022-12-07T09:02:27;33.77;;;20.47;;
5821;SDS011;2937;48.562;8.022;2022-12-07T09:07:20;39.23;;;23.00;;
5821;SDS011;2937;48.562;8.022;2022-12-07T09:12:12;49.63;;;29.73;;
5821;SDS011;2937;48.562;8.022;2022-12-07T09:17:06;43.90;;;28.50;;
5821;SDS011;2937;48.562;8.022;2022-12-07T09:22:00;39.40;;;25.77;;
5821;SDS011;2937;48.562;8.022;2022-12-07T09:26:53;35.10;;;22.40;;
5821;SDS011;2937;48.562;8.022;2022-12-07T09:31:45;32.47;;;19.00;;
5821;SDS011;2937;48.562;8.022;2022-12-07T09:36:38;32.03;;;22.27;;
5821;SDS011;2937;48.562;8.022;2022-12-07T09:41:32;36.20;;;22.40;;
5821;SDS011;2937;48.562;8.022;2022-12-07T09:46:32;32.20;;;19.50;;
5821;SDS011;2937;48.562;8.022;2022-12-07T09:51:27;28.80;;;18.60;;
5821;SDS011;2937;48.562;8.022;2022-12-07T09:56:19;22.67;;;15.23;;
5821;SDS011;2937;48.562;8.022;2022-12-07T10:01:15;25.23;;;17.50;;
5821;SDS011;2937;48.562;8.022;2022-12-07T10:06:09;20.10;;;12.90;;
5821;SDS011;2937;48.562;8.022;2022-12-07T10:11:03;17.97;;;12.13;;
5821;SDS011;2937;48.562;8.022;2022-12-07T10:16:01;19.27;;;12.90;;
5821;SDS011;2937;48.562;8.022;2022-12-07T10:21:13;23.77;;;14.77;;
5821;SDS011;2937;48.562;8.022;2022-12-07T10:26:19;23.73;;;16.40;;
5821;SDS011;2937;48.562;8.022;2022-12-07T10:31:15;23.50;;;15.10;;
5821;SDS011;2937;48.562;8.022;2022-12-07T10:36:20;25.23;;;14.97;;
5821;SDS011;2937;48.562;8.022;2022-12-07T10:41:13;22.63;;;13.87;;
5821;SDS011;2937;48.562;8.022;2022-12-07T10:46:20;22.73;;;14.70;;
5821;SDS011;2937;48.562;8.022;2022-12-07T10:51:15;24.90;;;15.13;;
5821;SDS011;2937;48.562;8.022;2022-12-07T10:56:17;19.33;;;13.23;;
5821;SDS011;2937;48.562;8.022;2022-12-07T11:01:18;19.70;;;12.93;;
5821;SDS011;2937;48.562;8.022;2022-12-07T11:06:16;16.80;;;11.40;;
5821;SDS011;2937;48.562;8.022;2022-12-07T11:11:12;16.43;;;10.50;;
5821;SDS011;2937;48.562;8.022;2022-12-07T11:16:23;20.10;;;12.80;;
5821;SDS011;2937;48.562;8.022;2022-12-07T11:21:18;16.60;;;9.00;;
5821;SDS011;2937;48.562;8.022;2022-12-07T11:26:15;17.23;;;10.53;;
5821;SDS011;2937;48.562;8.022;2022-12-07T11:31:12;21.33;;;13.17;;
5821;SDS011;2937;48.562;8.022;2022-12-07T11:36:23;17.80;;;12.20;;
5821;SDS011;2937;48.562;8.022;2022-12-07T11:41:21;20.50;;;14.93;;
5821;SDS011;2937;48.562;8.022;2022-12-07T11:46:15;14.93;;;10.53;;
5821;SDS011;2937;48.562;8.022;2022-12-07T11:51:09;19.90;;;14.00;;
5821;SDS011;2937;48.562;8.022;2022-12-07T11:56:06;19.40;;;13.03;;
5821;SDS011;2937;48.562;8.022;2022-12-07T12:01:04;18.60;;;12.80;;
5821;SDS011;2937;48.562;8.022;2022-12-07T12:05:59;15.30;;;10.40;;
5821;SDS011;2937;48.562;8.022;2022-12-07T12:10:54;15.40;;;10.77;;
5821;SDS011;2937;48.562;8.022;2022-12-07T12:15:57;12.30;;;8.03;;
5821;SDS011;2937;48.562;8.022;2022-12-07T12:20:51;12.47;;;9.00;;
5821;SDS011;2937;48.562;8.022;2022-12-07T12:25:48;13.63;;;9.90;;
5821;SDS011;2937;48.562;8.022;2022-12-07T12:30:42;13.73;;;9.67;;
5821;SDS011;2937;48.562;8.022;2022-12-07T12:35:36;14.70;;;10.00;;
5821;SDS011;2937;48.562;8.022;2022-12-07T12:40:41;13.53;;;9.90;;
5821;SDS011;2937;48.562;8.022;2022-12-07T12:45:41;14.37;;;10.23;;
5821;SDS011;2937;48.562;8.022;2022-12-07T12:50:34;15.10;;;9.50;;
5821;SDS011;2937;48.562;8.022;2022-12-07T12:55:45;11.63;;;8.80;;
5821;SDS011;2937;48.562;8.022;2022-12-07T13:00:41;14.80;;;9.90;;
5821;SDS011;2937;48.562;8.022;2022-12-07T13:05:33;13.33;;;9.20;;
5821;SDS011;2937;48.562;8.022;2022-12-07T13:15:38;13.23;;;8.77;;
5821;SDS011;2937;48.562;8.022;2022-12-07T13:25:54;16.60;;;11.10;;
5821;SDS011;2937;48.562;8.022;2022-12-07T13:30:53;16.00;;;10.23;;
5821;SDS011;2937;48.562;8.022;2022-12-07T13:35:53;14.77;;;8.33;;
5821;SDS011;2937;48.562;8.022;2022-12-07T13:40:58;14.60;;;9.50;;
5821;SDS011;2937;48.562;8.022;2022-12-07T13:45:56;13.60;;;9.23;;
5821;SDS011;2937;48.562;8.022;2022-12-07T13:50:53;14.73;;;9.83;;
5821;SDS011;2937;48.562;8.022;2022-12-07T13:55:46;14.43;;;8.93;;
5821;SDS011;2937;48.562;8.022;2022-12-07T14:00:45;14.37;;;9.30;;
5821;SDS011;2937;48.562;8.022;2022-12-07T14:05:39;14.90;;;9.80;;
5821;SDS011;2937;48.562;8.022;2022-12-07T14:10:33;14.60;;;9.00;;
5821;SDS011;2937;48.562;8.022;2022-12-07T14:15:27;14.03;;;9.13;;
5821;SDS011;2937;48.562;8.022;2022-12-07T14:20:30;14.30;;;10.03;;
5821;SDS011;2937;48.562;8.022;2022-12-07T14:25:25;12.80;;;8.73;;
5821;SDS011;2937;48.562;8.022;2022-12-07T14:30:18;13.63;;;9.00;;
5821;SDS011;2937;48.562;8.022;2022-12-07T14:35:12;11.97;;;8.60;;
5821;SDS011;2937;48.562;8.022;2022-12-07T14:40:05;17.80;;;12.27;;
5821;SDS011;2937;48.562;8.022;2022-12-07T14:44:59;17.70;;;11.00;;
5821;SDS011;2937;48.562;8.022;2022-12-07T14:49:53;19.27;;;12.93;;
5821;SDS011;2937;48.562;8.022;2022-12-07T14:54:47;20.50;;;13.77;;
5821;SDS011;2937;48.562;8.022;2022-12-07T14:59:40;21.67;;;14.07;;
5821;SDS011;2937;48.562;8.022;2022-12-07T15:04:37;24.10;;;14.60;;
5821;SDS011;2937;48.562;8.022;2022-12-07T15:09:30;25.90;;;16.70;;
5821;SDS011;2937;48.562;8.022;2022-12-07T15:14:22;31.90;;;19.37;;
5821;SDS011;2937;48.562;8.022;2022-12-07T15:19:15;30.60;;;17.70;;
5821;SDS011;2937;48.562;8.022;2022-12-07T15:24:25;24.73;;;14.80;;
5821;SDS011;2937;48.562;8.022;2022-12-07T15:29:18;25.70;;;15.23;;
5821;SDS011;2937;48.562;8.022;2022-12-07T15:34:14;22.70;;;14.00;;
5821;SDS011;2937;48.562;8.022;2022-12-07T15:39:06;24.37;;;14.97;;
5821;SDS011;2937;48.562;8.022;2022-12-07T15:44:08;27.83;;;15.87;;
5821;SDS011;2937;48.562;8.022;2022-12-07T15:49:21;27.57;;;15.30;;
5821;SDS011;2937;48.562;8.022;2022-12-07T15:54:16;28.23;;;17.33;;
5821;SDS011;2937;48.562;8.022;2022-12-07T15:59:11;29.17;;;17.20;;
5821;SDS011;2937;48.562;8.022;2022-12-07T16:04:04;62.30;;;29.90;;
5821;SDS011;2937;48.562;8.022;2022-12-07T16:08:56;39.37;;;21.67;;
5821;SDS011;2937;48.562;8.022;2022-12-07T16:13:49;33.60;;;19.30;;
5821;SDS011;2937;48.562;8.022;2022-12-07T16:18:44;62.10;;;36.60;;
5821;SDS011;2937;48.562;8.022;2022-12-07T16:23:37;40.10;;;24.13;;
5821;SDS011;2937;48.562;8.022;2022-12-07T16:28:30;31.33;;;18.60;;
5821;SDS011;2937;48.562;8.022;2022-12-07T16:33:22;29.27;;;17.87;;
5821;SDS011;2937;48.562;8.022;2022-12-07T16:38:16;29.70;;;17.80;;
5821;SDS011;2937;48.562;8.022;2022-12-07T16:43:09;29.07;;;16.67;;
5821;SDS011;2937;48.562;8.022;2022-12-07T16:48:03;30.47;;;18.00;;
5821;SDS011;2937;48.562;8.022;2022-12-07T16:52:56;32.20;;;20.50;;
5821;SDS011;2937;48.562;8.022;2022-12-07T16:57:50;37.60;;;22.07;;
5821;SDS011;2937;48.562;8.022;2022-12-07T17:02:43;32.53;;;19.07;;
5821;SDS011;2937;48.562;8.022;2022-12-07T17:07:36;35.80;;;20.03;;
5821;SDS011;2937;48.562;8.022;2022-12-07T17:12:28;38.70;;;23.00;;
5821;SDS011;2937;48.562;8.022;2022-12-07T17:17:22;40.73;;;23.20;;
5821;SDS011;2937;48.562;8.022;2022-12-07T17:22:15;37.70;;;21.43;;
5821;SDS011;2937;48.562;8.022;2022-12-07T17:27:08;34.93;;;19.60;;
5821;SDS011;2937;48.562;8.022;2022-12-07T17:32:00;33.13;;;19.40;;
5821;SDS011;2937;48.562;8.022;2022-12-07T17:36:54;34.43;;;20.53;;
5821;SDS011;2937;48.562;8.022;2022-12-07T17:41:47;38.80;;;21.63;;
5821;SDS011;2937;48.562;8.022;2022-12-07T17:46:53;36.10;;;21.67;;
5821;SDS011;2937;48.562;8.022;2022-12-07T17:51:48;39.37;;;21.83;;
5821;SDS011;2937;48.562;8.022;2022-12-07T17:57:00;32.40;;;19.23;;
5821;SDS011;2937;48.562;8.022;2022-12-07T18:01:53;34.33;;;19.70;;
5821;SDS011;2937;48.562;8.022;2022-12-07T18:06:45;41.20;;;24.23;;
5821;SDS011;2937;48.562;8.022;2022-12-07T18:11:42;35.63;;;20.93;;
5821;SDS011;2937;48.562;8.022;2022-12-07T18:16:36;29.57;;;17.50;;
5821;SDS011;2937;48.562;8.022;2022-12-07T18:21:29;105.47;;;22.40;;
5821;SDS011;2937;48.562;8.022;2022-12-07T18:26:23;26.93;;;15.70;;
5821;SDS011;2937;48.562;8.022;2022-12-07T18:31:16;85.77;;;39.93;;
5821;SDS011;2937;48.562;8.022;2022-12-07T18:36:10;27.43;;;15.97;;
5821;SDS011;2937;48.562;8.022;2022-12-07T18:41:05;36.13;;;16.67;;
5821;SDS011;2937;48.562;8.022;2022-12-07T18:45:58;39.17;;;20.23;;
5821;SDS011;2937;48.562;8.022;2022-12-07T18:50:58;33.37;;;18.00;;
5821;SDS011;2937;48.562;8.022;2022-12-07T18:55:52;34.47;;;19.70;;
5821;SDS011;2937;48.562;8.022;2022-12-07T19:00:53;50.67;;;26.33;;
5821;SDS011;2937;48.562;8.022;2022-12-07T19:05:46;59.50;;;31.83;;
5821;SDS011;2937;48.562;8.022;2022-12-07T19:10:39;38.53;;;20.00;;
5821;SDS011;2937;48.562;8.022;2022-12-07T19:15:33;45.50;;;22.07;;
5821;SDS011;2937;48.562;8.022;2022-12-07T19:20:25;57.17;;;31.33;;
5821;SDS011;2937;48.562;8.022;2022-12-07T19:25:18;46.63;;;20.73;;
5821;SDS011;2937;48.562;8.022;2022-12-07T19:30:12;336.37;;;30.80;;
5821;SDS011;2937;48.562;8.022;2022-12-07T19:35:09;33.80;;;17.40;;
5821;SDS011;2937;48.562;8.022;2022-12-07T19:40:04;34.60;;;19.00;;
5821;SDS011;2937;48.562;8.022;2022-12-07T19:44:57;36.63;;;20.13;;
5821;SDS011;2937;48.562;8.022;2022-12-07T19:49:50;44.23;;;24.17;;
5821;SDS011;2937;48.562;8.022;2022-12-07T19:54:44;42.67;;;22.83;;
5821;SDS011;2937;48.562;8.022;2022-12-07T19:59:37;37.17;;;19.53;;
5821;SDS011;2937;48.562;8.022;2022-12-07T20:04:31;45.03;;;20.07;;
5821;SDS011;2937;48.562;8.022;2022-12-07T20:09:26;41.17;;;20.80;;
5821;SDS011;2937;48.562;8.022;2022-12-07T20:14:20;44.10;;;19.50;;
5821;SDS011;2937;48.562;8.022;2022-12-07T20:19:13;35.67;;;19.17;;
5821;SDS011;2937;48.562;8.022;2022-12-07T20:24:06;41.57;;;20.07;;
5821;SDS011;2937;48.562;8.022;2022-12-07T20:28:59;42.23;;;20.50;;
5821;SDS011;2937;48.562;8.022;2022-12-07T20:34:00;46.03;;;18.50;;
5821;SDS011;2937;48.562;8.022;2022-12-07T20:38:54;37.00;;;18.67;;
5821;SDS011;2937;48.562;8.022;2022-12-07T20:43:46;39.43;;;18.53;;
5821;SDS011;2937;48.562;8.022;2022-12-07T20:48:39;37.93;;;18.47;;
5821;SDS011;2937;48.562;8.022;2022-12-07T20:53:33;38.37;;;18.93;;
5821;SDS011;2937;48.562;8.022;2022-12-07T20:58:25;39.17;;;19.63;;
5821;SDS011;2937;48.562;8.022;2022-12-07T21:03:19;38.93;;;19.57;;
5821;SDS011;2937;48.562;8.022;2022-12-07T21:08:11;43.57;;;20.77;;
5821;SDS011;2937;48.562;8.022;2022-12-07T21:13:05;39.00;;;19.30;;
5821;SDS011;2937;48.562;8.022;2022-12-07T21:17:58;45.30;;;21.33;;
5821;SDS011;2937;48.562;8.022;2022-12-07T21:22:57;38.00;;;18.67;;
5821;SDS011;2937;48.562;8.022;2022-12-07T21:27:50;42.80;;;18.97;;
5821;SDS011;2937;48.562;8.022;2022-12-07T21:32:44;38.10;;;18.97;;
5821;SDS011;2937;48.562;8.022;2022-12-07T21:37:36;42.13;;;19.33;;
5821;SDS011;2937;48.562;8.022;2022-12-07T21:42:30;39.23;;;18.67;;
5821;SDS011;2937;48.562;8.022;2022-12-07T21:47:22;40.37;;;18.03;;
5821;SDS011;2937;48.562;8.022;2022-12-07T21:52:16;40.20;;;18.50;;
5821;SDS011;2937;48.562;8.022;2022-12-07T21:57:09;43.57;;;21.43;;
5821;SDS011;2937;48.562;8.022;2022-12-07T22:02:01;43.10;;;21.07;;
5821;SDS011;2937;48.562;8.022;2022-12-07T22:06:54;40.13;;;20.50;;
5821;SDS011;2937;48.562;8.022;2022-12-07T22:11:50;34.70;;;18.10;;
5821;SDS011;2937;48.562;8.022;2022-12-07T22:16:43;43.77;;;20.90;;
5821;SDS011;2937;48.562;8.022;2022-12-07T22:21:36;40.60;;;20.70;;
5821;SDS011;2937;48.562;8.022;2022-12-07T22:26:29;40.73;;;18.27;;
5821;SDS011;2937;48.562;8.022;2022-12-07T22:31:23;35.97;;;18.67;;
5821;SDS011;2937;48.562;8.022;2022-12-07T22:36:16;38.23;;;19.30;;
5821;SDS011;2937;48.562;8.022;2022-12-07T22:41:09;39.67;;;20.50;;
5821;SDS011;2937;48.562;8.022;2022-12-07T22:46:02;37.63;;;18.23;;
5821;SDS011;2937;48.562;8.022;2022-12-07T22:50:56;36.53;;;17.63;;
5821;SDS011;2937;48.562;8.022;2022-12-07T22:55:50;41.03;;;18.67;;
5821;SDS011;2937;48.562;8.022;2022-12-07T23:00:42;37.23;;;17.40;;
5821;SDS011;2937;48.562;8.022;2022-12-07T23:05:39;39.70;;;18.80;;
5821;SDS011;2937;48.562;8.022;2022-12-07T23:10:33;32.83;;;15.93;;
5821;SDS011;2937;48.562;8.022;2022-12-07T23:15:26;33.30;;;17.20;;
5821;SDS011;2937;48.562;8.022;2022-12-07T23:20:19;32.97;;;17.10;;
5821;SDS011;2937;48.562;8.022;2022-12-07T23:25:11;43.77;;;20.67;;
5821;SDS011;2937;48.562;8.022;2022-12-07T23:30:06;39.37;;;20.17;;
5821;SDS011;2937;48.562;8.022;2022-12-07T23:34:58;40.87;;;20.10;;
5821;SDS011;2937;48.562;8.022;2022-12-07T23:39:52;43.93;;;18.90;;
5821;SDS011;2937;48.562;8.022;2022-12-07T23:44:44;42.70;;;21.00;;
5821;SDS011;2937;48.562;8.022;2022-12-07T23:49:38;44.87;;;21.07;;
5821;SDS011;2937;48.562;8.022;2022-12-07T23:54:31;45.00;;;22.03;;
5821;SDS011;2937;48.562;8.022;2022-12-07T23:59:23;43.53;;;22.40;;
